createdAt,value
2023-11-18T05:15:05.422Z,0.00
2023-11-18T05:16:04.385Z,0.00
2023-11-18T05:17:04.414Z,0.00
2023-11-18T05:18:04.448Z,0.00
2023-11-18T05:19:04.350Z,0.00
2023-11-18T05:20:04.390Z,0.00
2023-11-18T05:21:04.338Z,0.00
2023-11-18T05:22:04.305Z,0.00
2023-11-18T05:23:04.322Z,0.00
2023-11-18T05:24:04.281Z,0.00
2023-11-18T05:25:04.270Z,0.00
2023-11-18T05:26:04.278Z,0.00
2023-11-18T05:27:04.236Z,0.00
2023-11-18T05:28:04.259Z,0.00
2023-11-18T05:29:04.253Z,0.00
2023-11-18T05:30:04.222Z,0.00
2023-11-18T05:31:04.351Z,0.00
2023-11-18T05:32:04.233Z,0.00
2023-11-18T05:33:04.262Z,0.00
2023-11-18T05:34:04.156Z,0.00
2023-11-18T05:35:04.176Z,0.00
2023-11-18T05:36:04.135Z,0.00
2023-11-18T05:37:04.145Z,0.00
2023-11-18T05:38:04.146Z,0.00
2023-11-18T05:39:04.088Z,0.00
2023-11-18T05:40:04.086Z,0.00
2023-11-18T05:41:04.077Z,0.00
2023-11-18T05:42:04.066Z,0.00
2023-11-18T05:43:04.043Z,0.00
2023-11-18T05:44:04.156Z,0.00
2023-11-18T05:45:04.013Z,0.00
2023-11-18T05:46:04.052Z,0.00
2023-11-18T05:47:04.138Z,0.00
2023-11-18T05:48:04.067Z,0.00
2023-11-18T05:49:03.966Z,0.00
2023-11-18T05:50:04.053Z,0.00
2023-11-18T05:51:03.959Z,0.00
2023-11-18T05:52:03.951Z,0.00
2023-11-18T05:53:03.995Z,0.00
2023-11-18T05:54:03.906Z,0.00
2023-11-18T05:55:03.892Z,0.00
2023-11-18T05:56:03.976Z,0.00
2023-11-18T05:57:03.863Z,0.00
2023-11-18T05:58:03.851Z,0.00
2023-11-18T05:59:03.938Z,0.00
2023-11-18T06:00:03.860Z,0.00
2023-11-18T06:01:03.829Z,0.00
2023-11-18T06:02:03.914Z,0.00
2023-11-18T06:03:04.015Z,0.00
2023-11-18T06:04:03.831Z,0.00
2023-11-18T06:05:03.790Z,0.00
2023-11-18T06:06:03.753Z,0.00
2023-11-18T06:07:03.809Z,0.00
2023-11-18T06:08:03.786Z,0.00
2023-11-18T06:09:03.716Z,0.00
2023-11-18T06:10:03.727Z,0.00
2023-11-18T06:11:03.724Z,0.00
2023-11-18T06:12:03.687Z,0.00
2023-11-18T06:13:03.662Z,0.00
2023-11-18T06:14:03.700Z,0.00
2023-11-18T06:15:03.650Z,0.00
2023-11-18T06:16:03.632Z,0.00
2023-11-18T06:17:03.662Z,0.00
2023-11-18T06:18:03.678Z,0.00
2023-11-18T06:19:03.595Z,0.00
2023-11-18T06:20:03.628Z,4.00
2023-11-18T06:21:03.559Z,0.00
2023-11-18T06:22:03.546Z,0.00
2023-11-18T06:23:03.602Z,4.00
2023-11-18T06:24:03.530Z,4.00
2023-11-18T06:25:03.531Z,4.00
2023-11-18T06:26:03.578Z,4.00
2023-11-18T06:27:03.485Z,4.00
2023-11-18T06:28:03.482Z,4.00
2023-11-18T06:29:03.501Z,8.00
2023-11-18T06:30:03.441Z,4.00
2023-11-18T06:31:03.436Z,8.00
2023-11-18T06:32:03.418Z,8.00
2023-11-18T06:33:03.498Z,8.00
2023-11-18T06:34:03.432Z,12.00
2023-11-18T06:35:03.465Z,16.00
2023-11-18T06:36:03.363Z,16.00
2023-11-18T06:37:03.366Z,16.00
2023-11-18T06:38:03.398Z,20.00
2023-11-18T06:39:03.336Z,24.00
2023-11-18T06:40:03.332Z,28.00
2023-11-18T06:41:05.211Z,32.00
2023-11-18T06:42:03.345Z,32.00
2023-11-18T06:43:03.289Z,40.00
2023-11-18T06:44:03.295Z,44.00
2023-11-18T06:45:03.263Z,52.00
2023-11-18T06:46:03.236Z,56.00
2023-11-18T06:47:03.464Z,68.00
2023-11-18T06:48:03.346Z,72.00
2023-11-18T06:49:03.203Z,84.00
2023-11-18T06:50:03.205Z,96.00
2023-11-18T06:51:03.197Z,104.00
2023-11-18T06:52:03.195Z,120.00
2023-11-18T06:53:03.169Z,128.00
2023-11-18T06:54:03.134Z,136.00
2023-11-18T06:55:03.129Z,136.00
2023-11-18T06:56:03.146Z,140.00
2023-11-18T06:57:03.110Z,144.00
2023-11-18T06:58:03.121Z,152.00
2023-11-18T06:59:03.172Z,156.00
2023-11-18T07:00:03.075Z,160.00
2023-11-18T07:01:03.127Z,160.00
2023-11-18T07:02:04.509Z,160.00
2023-11-18T07:03:03.132Z,168.00
2023-11-18T07:04:03.044Z,176.00
2023-11-18T07:05:03.047Z,192.00
2023-11-18T07:06:03.032Z,208.00
2023-11-18T07:07:02.977Z,220.00
2023-11-18T07:08:03.015Z,232.00
2023-11-18T07:09:02.949Z,244.00
2023-11-18T07:10:02.972Z,256.00
2023-11-18T07:11:02.994Z,272.00
2023-11-18T07:12:02.902Z,288.00
2023-11-18T07:13:02.900Z,308.00
2023-11-18T07:14:02.906Z,328.00
2023-11-18T07:15:02.888Z,348.00
2023-11-18T07:16:02.869Z,368.00
2023-11-18T07:17:02.881Z,392.00
2023-11-18T07:18:02.913Z,416.00
2023-11-18T07:19:02.828Z,436.00
2023-11-18T07:20:02.885Z,464.00
2023-11-18T07:21:02.798Z,492.00
2023-11-18T07:22:02.788Z,532.00
2023-11-18T07:23:02.785Z,564.00
2023-11-18T07:24:02.774Z,600.00
2023-11-18T07:25:02.778Z,636.00
2023-11-18T07:26:02.813Z,668.00
2023-11-18T07:27:02.726Z,700.00
2023-11-18T07:28:02.702Z,732.00
2023-11-18T07:29:02.745Z,772.00
2023-11-18T07:30:02.685Z,812.00
2023-11-18T07:31:02.696Z,856.00
2023-11-18T07:32:02.693Z,908.00
2023-11-18T07:33:02.707Z,956.00
2023-11-18T07:34:02.642Z,1004.00
2023-11-18T07:35:02.687Z,1060.00
2023-11-18T07:36:02.612Z,1120.00
2023-11-18T07:37:02.599Z,1184.00
2023-11-18T07:38:02.686Z,1248.00
2023-11-18T07:39:02.608Z,1324.00
2023-11-18T07:40:02.547Z,1420.00
2023-11-18T07:41:02.581Z,1520.00
2023-11-18T07:42:02.526Z,1584.00
2023-11-18T07:43:02.536Z,1612.00
2023-11-18T07:44:03.154Z,1644.00
2023-11-18T07:45:02.489Z,1696.00
2023-11-18T07:46:02.503Z,1740.00
2023-11-18T07:47:02.496Z,1768.00
2023-11-18T07:48:02.557Z,1768.00
2023-11-18T07:49:02.478Z,1740.00
2023-11-18T07:50:02.438Z,1700.00
2023-11-18T07:51:02.411Z,1680.00
2023-11-18T07:52:02.408Z,1680.00
2023-11-18T07:53:02.477Z,1704.00
2023-11-18T07:54:02.370Z,1740.00
2023-11-18T07:55:02.388Z,1772.00
2023-11-18T07:56:02.390Z,1788.00
2023-11-18T07:57:02.360Z,1792.00
2023-11-18T07:58:02.329Z,1800.00
2023-11-18T07:59:02.359Z,1804.00
2023-11-18T08:00:02.304Z,1824.00
2023-11-18T08:01:02.307Z,1848.00
2023-11-18T08:02:04.577Z,1900.00
2023-11-18T08:03:02.300Z,1916.00
2023-11-18T08:04:02.279Z,1920.00
2023-11-18T08:05:02.329Z,1940.00
2023-11-18T08:06:02.234Z,1964.00
2023-11-18T08:07:02.224Z,1980.00
2023-11-18T08:08:02.219Z,2000.00
2023-11-18T08:09:02.187Z,2028.00
2023-11-18T08:10:04.310Z,2064.00
2023-11-18T08:11:02.202Z,2104.00
2023-11-18T08:12:02.146Z,2156.00
2023-11-18T08:13:02.134Z,2196.00
2023-11-18T08:14:02.151Z,2216.00
2023-11-18T08:15:02.156Z,2220.00
2023-11-18T08:16:02.279Z,2200.00
2023-11-18T08:17:02.225Z,2176.00
2023-11-18T08:18:02.137Z,2160.00
2023-11-18T08:19:02.054Z,2160.00
2023-11-18T08:20:02.139Z,2184.00
2023-11-18T08:21:02.058Z,2224.00
2023-11-18T08:22:02.028Z,2268.00
2023-11-18T08:23:02.059Z,2300.00
2023-11-18T08:24:01.995Z,2308.00
2023-11-18T08:25:02.034Z,2304.00
2023-11-18T08:26:02.013Z,2308.00
2023-11-18T08:27:01.963Z,2316.00
2023-11-18T08:28:01.958Z,2332.00
2023-11-18T08:29:01.973Z,2348.00
2023-11-18T08:30:01.945Z,2360.00
2023-11-18T08:31:02.105Z,2364.00
2023-11-18T08:32:02.003Z,2352.00
2023-11-18T08:33:05.458Z,2336.00
2023-11-18T08:34:01.891Z,2312.00
2023-11-18T08:35:01.884Z,2300.00
2023-11-18T08:36:01.842Z,2300.00
2023-11-18T08:37:01.837Z,2296.00
2023-11-18T08:38:01.935Z,2280.00
2023-11-18T08:39:01.821Z,2236.00
2023-11-18T08:40:01.811Z,2180.00
2023-11-18T08:41:01.810Z,2120.00
2023-11-18T08:42:01.784Z,2076.00
2023-11-18T08:43:01.765Z,2052.00
2023-11-18T08:44:13.714Z,2040.00
2023-11-18T08:45:05.276Z,2032.00
2023-11-18T08:46:01.745Z,2044.00
2023-11-18T08:47:01.731Z,2072.00
2023-11-18T08:48:01.780Z,2124.00
2023-11-18T08:49:01.681Z,2176.00
2023-11-18T08:50:01.741Z,2224.00
2023-11-18T08:51:01.648Z,2248.00
2023-11-18T08:52:01.649Z,2248.00
2023-11-18T08:53:01.649Z,2224.00
2023-11-18T08:54:01.622Z,2184.00
2023-11-18T08:55:01.595Z,2140.00
2023-11-18T08:56:01.622Z,2104.00
2023-11-18T08:57:01.568Z,2076.00
2023-11-18T08:58:01.632Z,2060.00
2023-11-18T08:59:01.576Z,2036.00
2023-11-18T09:00:01.557Z,2008.00
2023-11-18T09:01:01.522Z,1980.00
2023-11-18T09:02:01.615Z,1960.00
2023-11-18T09:03:01.651Z,1944.00
2023-11-18T09:04:01.529Z,1912.00
2023-11-18T09:05:01.503Z,1884.00
2023-11-18T09:06:01.465Z,1860.00
2023-11-18T09:07:01.531Z,1836.00
2023-11-18T09:08:01.490Z,1812.00
2023-11-18T09:09:01.424Z,1780.00
2023-11-18T09:10:01.419Z,1756.00
2023-11-18T09:11:01.487Z,1736.00
2023-11-18T09:12:01.405Z,1724.00
2023-11-18T09:13:02.452Z,1712.00
2023-11-18T09:14:02.335Z,1720.00
2023-11-18T09:15:01.373Z,1728.00
2023-11-18T09:16:01.417Z,1736.00
2023-11-18T09:17:01.357Z,1748.00
2023-11-18T09:18:01.402Z,1760.00
2023-11-18T09:19:01.319Z,1784.00
2023-11-18T09:20:01.323Z,1828.00
2023-11-18T09:21:01.277Z,1864.00
2023-11-18T09:22:01.279Z,1916.00
2023-11-18T09:23:01.254Z,1976.00
2023-11-18T09:24:01.234Z,2064.00
2023-11-18T09:25:01.258Z,2160.00
2023-11-18T09:26:01.254Z,2268.00
2023-11-18T09:27:01.191Z,2364.00
2023-11-18T09:28:01.183Z,2464.00
2023-11-18T09:29:01.230Z,2552.00
2023-11-18T09:30:01.218Z,2628.00
2023-11-18T09:31:01.158Z,2688.00
2023-11-18T09:32:01.177Z,2760.00
2023-11-18T09:33:01.185Z,2840.00
2023-11-18T09:34:01.310Z,2920.00
2023-11-18T09:35:01.169Z,2984.00
2023-11-18T09:36:01.085Z,3020.00
2023-11-18T09:37:01.076Z,3032.00
2023-11-18T09:38:01.132Z,3024.00
2023-11-18T09:39:01.038Z,3004.00
2023-11-18T09:40:01.060Z,2992.00
2023-11-18T09:41:01.065Z,3004.00
2023-11-18T09:42:01.013Z,3032.00
2023-11-18T09:43:01.011Z,3048.00
2023-11-18T09:44:01.046Z,3044.00
2023-11-18T09:45:00.996Z,3004.00
2023-11-18T09:46:00.995Z,2932.00
2023-11-18T09:47:00.972Z,2856.00
2023-11-18T09:48:00.999Z,2780.00
2023-11-18T09:49:01.101Z,2720.00
2023-11-18T09:50:01.128Z,2684.00
2023-11-18T09:51:00.956Z,2660.00
2023-11-18T09:52:00.894Z,2652.00
2023-11-18T09:53:00.901Z,2652.00
2023-11-18T09:54:00.869Z,2644.00
2023-11-18T09:55:00.850Z,2640.00
2023-11-18T09:56:00.873Z,2644.00
2023-11-18T09:57:00.848Z,2652.00
2023-11-18T09:58:00.827Z,2668.00
2023-11-18T09:59:00.824Z,2668.00
2023-11-18T10:00:00.783Z,2632.00
2023-11-18T10:01:00.767Z,2580.00
2023-11-18T10:02:00.818Z,2524.00
2023-11-18T10:03:00.888Z,2464.00
2023-11-18T10:04:00.827Z,2396.00
2023-11-18T10:05:00.743Z,2332.00
2023-11-18T10:06:00.703Z,2284.00
2023-11-18T10:07:00.688Z,2248.00
2023-11-18T10:08:01.012Z,2212.00
2023-11-18T10:09:00.671Z,2176.00
2023-11-18T10:10:00.649Z,2148.00
2023-11-18T10:11:00.655Z,2124.00
2023-11-18T10:12:00.636Z,2108.00
2023-11-18T10:13:00.618Z,2100.00
2023-11-18T10:14:00.676Z,2112.00
2023-11-18T10:15:00.589Z,2140.00
2023-11-18T10:16:00.577Z,2184.00
2023-11-18T10:17:00.590Z,2220.00
2023-11-18T10:18:00.820Z,2236.00
2023-11-18T10:19:00.546Z,2220.00
2023-11-18T10:20:00.572Z,2176.00
2023-11-18T10:21:00.512Z,2148.00
2023-11-18T10:22:01.923Z,2148.00
2023-11-18T10:23:00.515Z,2164.00
2023-11-18T10:24:00.472Z,2196.00
2023-11-18T10:25:00.477Z,2256.00
2023-11-18T10:26:00.508Z,2332.00
2023-11-18T10:27:00.448Z,2404.00
2023-11-18T10:28:02.509Z,2444.00
2023-11-18T10:29:00.450Z,2452.00
2023-11-18T10:30:00.404Z,2444.00
2023-11-18T10:31:00.445Z,2456.00
2023-11-18T10:32:00.411Z,2456.00
2023-11-18T10:33:00.404Z,2424.00
2023-11-18T10:34:01.598Z,2364.00
2023-11-18T10:35:00.533Z,2292.00
2023-11-18T10:36:00.331Z,2252.00
2023-11-18T10:37:00.301Z,2244.00
2023-11-18T10:39:00.276Z,2228.00
2023-11-18T10:40:00.306Z,2224.00
2023-11-18T10:41:00.326Z,2208.00
2023-11-18T10:42:00.257Z,2184.00
2023-11-18T10:43:00.278Z,2144.00
2023-11-18T10:44:00.289Z,2112.00
2023-11-18T10:45:00.338Z,2104.00
2023-11-18T10:46:00.236Z,2108.00
2023-11-18T10:47:00.710Z,2128.00
2023-11-18T10:48:00.201Z,2164.00
2023-11-18T10:49:00.176Z,2228.00
2023-11-18T10:50:00.318Z,2304.00
2023-11-18T10:51:00.121Z,2376.00
2023-11-18T10:52:02.903Z,2472.00
2023-11-18T10:53:00.126Z,2572.00
2023-11-18T10:54:00.486Z,2640.00
2023-11-18T10:55:00.131Z,2668.00
2023-11-18T10:56:00.087Z,2700.00
2023-11-18T10:57:00.042Z,2712.00
2023-11-18T10:58:02.753Z,2668.00
2023-11-18T10:59:00.079Z,2560.00
2023-11-18T11:00:00.001Z,2392.00
2023-11-18T11:00:59.998Z,2200.00
2023-11-18T11:02:00.089Z,2032.00
2023-11-18T11:03:00.115Z,1912.00
2023-11-18T11:04:02.596Z,1816.00
2023-11-18T11:05:00.021Z,1752.00
2023-11-18T11:05:59.957Z,1704.00
2023-11-18T11:06:59.918Z,1660.00
2023-11-18T11:07:59.940Z,1612.00
2023-11-18T11:08:59.910Z,1556.00
2023-11-18T11:09:59.872Z,1484.00
2023-11-18T11:11:00.019Z,1428.00
2023-11-18T11:11:59.854Z,1388.00
2023-11-18T11:12:59.847Z,1376.00
2023-11-18T11:13:59.837Z,1400.00
2023-11-18T11:14:59.813Z,1444.00
2023-11-18T11:15:59.799Z,1512.00
2023-11-18T11:16:59.864Z,1576.00
2023-11-18T11:17:59.869Z,1620.00
2023-11-18T11:18:59.753Z,1632.00
2023-11-18T11:19:59.783Z,1632.00
2023-11-18T11:20:59.729Z,1608.00
2023-11-18T11:21:59.725Z,1580.00
2023-11-18T11:22:59.782Z,1556.00
2023-11-18T11:23:59.695Z,1528.00
2023-11-18T11:24:59.686Z,1528.00
2023-11-18T11:25:59.711Z,1552.00
2023-11-18T11:26:59.662Z,1604.00
2023-11-18T11:27:59.656Z,1668.00
2023-11-18T11:28:59.636Z,1740.00
2023-11-18T11:29:59.623Z,1852.00
2023-11-18T11:30:59.615Z,1976.00
2023-11-18T11:31:59.674Z,2084.00
2023-11-18T11:32:59.580Z,2176.00
2023-11-18T11:33:59.595Z,2248.00
2023-11-18T11:34:59.588Z,2308.00
2023-11-18T11:35:59.540Z,2320.00
2023-11-18T11:36:59.536Z,2288.00
2023-11-18T11:37:59.592Z,2248.00
2023-11-18T11:38:59.505Z,2184.00
2023-11-18T11:39:59.766Z,2096.00
2023-11-18T11:40:59.532Z,2052.00
2023-11-18T11:41:59.473Z,2028.00
2023-11-18T11:42:59.441Z,1996.00
2023-11-18T11:43:59.612Z,1904.00
2023-11-18T11:44:59.470Z,1796.00
2023-11-18T11:45:59.442Z,1708.00
2023-11-18T11:46:59.477Z,1648.00
2023-11-18T11:47:59.473Z,1584.00
2023-11-18T11:48:59.371Z,1528.00
2023-11-18T11:50:01.747Z,1468.00
2023-11-18T11:50:59.379Z,1420.00
2023-11-18T11:51:59.343Z,1392.00
2023-11-18T11:52:59.325Z,1372.00
2023-11-18T11:53:59.352Z,1352.00
2023-11-18T11:54:59.299Z,1336.00
2023-11-18T11:55:59.347Z,1328.00
2023-11-18T11:56:59.269Z,1320.00
2023-11-18T11:57:59.267Z,1296.00
2023-11-18T11:58:59.279Z,1284.00
2023-11-18T11:59:59.263Z,1292.00
2023-11-18T12:00:59.258Z,1292.00
2023-11-18T12:01:59.364Z,1292.00
2023-11-18T12:02:59.205Z,1292.00
2023-11-18T12:03:59.644Z,1284.00
2023-11-18T12:04:59.289Z,1280.00
2023-11-18T12:05:59.158Z,1292.00
2023-11-18T12:07:08.604Z,1324.00
2023-11-18T12:08:00.188Z,1372.00
2023-11-18T12:08:59.124Z,1424.00
2023-11-18T12:09:59.157Z,1464.00
2023-11-18T12:10:59.129Z,1488.00
2023-11-18T12:12:00.470Z,1484.00
2023-11-18T12:12:59.063Z,1444.00
2023-11-18T12:13:59.107Z,1360.00
2023-11-18T12:14:59.158Z,1256.00
2023-11-18T12:15:59.173Z,1140.00
2023-11-18T12:16:59.003Z,1040.00
2023-11-18T12:17:59.373Z,968.00
2023-11-18T12:18:58.991Z,924.00
2023-11-18T12:19:59.010Z,876.00
2023-11-18T12:20:59.060Z,828.00
2023-11-18T12:21:58.955Z,792.00
2023-11-18T12:22:59.004Z,840.00
2023-11-18T12:23:58.930Z,856.00
2023-11-18T12:24:59.373Z,852.00
2023-11-18T12:25:59.087Z,892.00
2023-11-18T12:26:58.882Z,936.00
2023-11-18T12:27:58.895Z,1024.00
2023-11-18T12:28:58.930Z,1092.00
2023-11-18T12:29:58.848Z,1132.00
2023-11-18T12:30:59.320Z,1164.00
2023-11-18T12:31:58.969Z,1188.00
2023-11-18T12:32:58.883Z,1060.00
2023-11-18T12:33:58.791Z,956.00
2023-11-18T12:34:58.801Z,920.00
2023-11-18T12:35:58.768Z,936.00
2023-11-18T12:36:58.790Z,952.00
2023-11-18T12:37:58.773Z,960.00
2023-11-18T12:38:58.817Z,968.00
2023-11-18T12:39:58.712Z,988.00
2023-11-18T12:40:58.789Z,1000.00
2023-11-18T12:41:58.715Z,992.00
2023-11-18T12:42:58.678Z,976.00
2023-11-18T12:43:58.688Z,972.00
2023-11-18T12:44:58.662Z,980.00
2023-11-18T12:45:58.688Z,968.00
2023-11-18T12:46:58.662Z,940.00
2023-11-18T12:47:58.670Z,912.00
2023-11-18T12:48:58.594Z,884.00
2023-11-18T12:49:58.750Z,856.00
2023-11-18T12:50:58.577Z,832.00
2023-11-18T12:51:58.576Z,800.00
2023-11-18T12:52:58.814Z,768.00
2023-11-18T12:53:58.535Z,740.00
2023-11-18T12:54:58.512Z,748.00
2023-11-18T12:55:58.544Z,764.00
2023-11-18T12:56:58.505Z,780.00
2023-11-18T12:57:58.485Z,792.00
2023-11-18T12:58:58.489Z,780.00
2023-11-18T12:59:58.473Z,756.00
2023-11-18T13:00:58.571Z,724.00
2023-11-18T13:01:59.051Z,704.00
2023-11-18T13:02:58.605Z,684.00
2023-11-18T13:03:58.530Z,656.00
2023-11-18T13:04:58.409Z,644.00
2023-11-18T13:05:58.402Z,652.00
2023-11-18T13:06:58.368Z,664.00
2023-11-18T13:07:58.414Z,692.00
2023-11-18T13:08:58.359Z,700.00
2023-11-18T13:09:58.344Z,684.00
2023-11-18T13:10:58.341Z,652.00
2023-11-18T13:12:00.450Z,612.00
2023-11-18T13:12:58.291Z,564.00
2023-11-18T13:13:58.347Z,524.00
2023-11-18T13:14:58.290Z,492.00
2023-11-18T13:15:58.275Z,492.00
2023-11-18T13:16:58.257Z,508.00
2023-11-18T13:17:58.260Z,540.00
2023-11-18T13:18:58.224Z,568.00
2023-11-18T13:19:58.264Z,584.00
2023-11-18T13:20:58.184Z,580.00
2023-11-18T13:21:58.174Z,564.00
2023-11-18T13:22:58.178Z,536.00
2023-11-18T13:23:58.169Z,532.00
2023-11-18T13:24:58.144Z,596.00
2023-11-18T13:25:58.162Z,676.00
2023-11-18T13:26:58.110Z,732.00
2023-11-18T13:27:58.108Z,744.00
2023-11-18T13:28:58.125Z,780.00
2023-11-18T13:29:58.076Z,824.00
2023-11-18T13:30:58.071Z,840.00
2023-11-18T13:31:58.068Z,868.00
2023-11-18T13:32:58.099Z,888.00
2023-11-18T13:33:58.081Z,932.00
2023-11-18T13:34:58.049Z,968.00
2023-11-18T13:35:57.995Z,968.00
2023-11-18T13:36:57.988Z,984.00
2023-11-18T13:37:57.999Z,1048.00
2023-11-18T13:38:57.976Z,1108.00
2023-11-18T13:39:57.962Z,1144.00
2023-11-18T13:40:57.936Z,1148.00
2023-11-18T13:41:57.920Z,1128.00
2023-11-18T13:42:57.916Z,1088.00
2023-11-18T13:43:57.918Z,1048.00
2023-11-18T13:44:57.895Z,1012.00
2023-11-18T13:45:57.911Z,988.00
2023-11-18T13:46:57.910Z,964.00
2023-11-18T13:47:57.925Z,928.00
2023-11-18T13:48:57.834Z,880.00
2023-11-18T13:49:57.868Z,824.00
2023-11-18T13:50:57.837Z,776.00
2023-11-18T13:51:57.801Z,744.00
2023-11-18T13:52:58.010Z,704.00
2023-11-18T13:53:57.777Z,648.00
2023-11-18T13:54:57.751Z,576.00
2023-11-18T13:55:57.779Z,528.00
2023-11-18T13:56:57.730Z,516.00
2023-11-18T13:57:57.717Z,520.00
2023-11-18T13:58:57.741Z,548.00
2023-11-18T13:59:57.694Z,592.00
2023-11-18T14:00:57.696Z,640.00
2023-11-18T14:01:57.802Z,684.00
2023-11-18T14:02:57.813Z,704.00
2023-11-18T14:03:57.706Z,708.00
2023-11-18T14:04:57.655Z,712.00
2023-11-18T14:05:57.642Z,720.00
2023-11-18T14:06:57.603Z,736.00
2023-11-18T14:07:57.609Z,744.00
2023-11-18T14:08:57.594Z,720.00
2023-11-18T14:09:57.560Z,664.00
2023-11-18T14:11:02.975Z,616.00
2023-11-18T14:11:58.556Z,572.00
2023-11-18T14:12:57.526Z,536.00
2023-11-18T14:13:57.533Z,512.00
2023-11-18T14:14:57.512Z,496.00
2023-11-18T14:15:57.588Z,500.00
2023-11-18T14:16:57.503Z,528.00
2023-11-18T14:17:57.459Z,560.00
2023-11-18T14:18:57.452Z,588.00
2023-11-18T14:19:57.482Z,600.00
2023-11-18T14:20:57.417Z,608.00
2023-11-18T14:21:57.396Z,612.00
2023-11-18T14:22:57.467Z,616.00
2023-11-18T14:23:57.410Z,604.00
2023-11-18T14:24:57.394Z,580.00
2023-11-18T14:25:57.387Z,556.00
2023-11-18T14:26:57.347Z,528.00
2023-11-18T14:27:57.328Z,516.00
2023-11-18T14:28:57.339Z,508.00
2023-11-18T14:29:57.299Z,496.00
2023-11-18T14:30:57.366Z,476.00
2023-11-18T14:31:57.422Z,456.00
2023-11-18T14:32:57.299Z,440.00
2023-11-18T14:33:57.264Z,448.00
2023-11-18T14:34:57.274Z,464.00
2023-11-18T14:35:57.229Z,480.00
2023-11-18T14:36:57.222Z,480.00
2023-11-18T14:37:57.312Z,468.00
2023-11-18T14:38:57.230Z,448.00
2023-11-18T14:39:57.167Z,420.00
2023-11-18T14:40:57.213Z,392.00
2023-11-18T14:41:57.143Z,368.00
2023-11-18T14:42:57.142Z,352.00
2023-11-18T14:43:57.178Z,332.00
2023-11-18T14:44:57.114Z,316.00
2023-11-18T14:45:57.113Z,308.00
2023-11-18T14:46:57.117Z,308.00
2023-11-18T14:47:57.368Z,304.00
2023-11-18T14:48:57.050Z,308.00
2023-11-18T14:49:57.058Z,320.00
2023-11-18T14:50:57.019Z,320.00
2023-11-18T14:51:57.014Z,324.00
2023-11-18T14:52:57.055Z,336.00
2023-11-18T14:53:56.998Z,344.00
2023-11-18T14:54:56.976Z,352.00
2023-11-18T14:55:56.993Z,356.00
2023-11-18T14:56:56.961Z,352.00
2023-11-18T14:57:56.955Z,328.00
2023-11-18T14:58:56.935Z,300.00
2023-11-18T14:59:56.917Z,264.00
2023-11-18T15:00:56.898Z,236.00
2023-11-18T15:01:56.935Z,220.00
2023-11-18T15:02:59.946Z,212.00
2023-11-18T15:03:56.952Z,200.00
2023-11-18T15:04:56.873Z,184.00
2023-11-18T15:05:56.837Z,164.00
2023-11-18T15:06:56.854Z,148.00
2023-11-18T15:07:56.936Z,136.00
2023-11-18T15:08:56.800Z,136.00
2023-11-18T15:09:56.786Z,136.00
2023-11-18T15:10:56.789Z,140.00
2023-11-18T15:11:56.773Z,140.00
2023-11-18T15:12:56.742Z,136.00
2023-11-18T15:13:56.754Z,144.00
2023-11-18T15:14:56.720Z,144.00
2023-11-18T15:15:56.766Z,144.00
2023-11-18T15:16:56.873Z,144.00
2023-11-18T15:17:56.714Z,136.00
2023-11-18T15:18:56.718Z,120.00
2023-11-18T15:19:56.689Z,108.00
2023-11-18T15:20:56.648Z,92.00
2023-11-18T15:21:56.636Z,84.00
2023-11-18T15:22:56.671Z,76.00
2023-11-18T15:23:56.610Z,68.00
2023-11-18T15:24:56.603Z,56.00
2023-11-18T15:25:56.631Z,52.00
2023-11-18T15:26:56.580Z,52.00
2023-11-18T15:27:56.553Z,48.00
2023-11-18T15:28:56.605Z,40.00
2023-11-18T15:29:56.536Z,36.00
2023-11-18T15:30:56.555Z,36.00
2023-11-18T15:31:56.583Z,32.00
2023-11-18T15:32:56.511Z,28.00
2023-11-18T15:33:56.493Z,28.00
2023-11-18T15:34:56.496Z,28.00
2023-11-18T15:35:56.448Z,24.00
2023-11-18T15:36:56.439Z,20.00
2023-11-18T15:37:56.448Z,16.00
2023-11-18T15:38:56.423Z,16.00
2023-11-18T15:39:56.410Z,12.00
2023-11-18T15:40:56.477Z,12.00
2023-11-18T15:41:56.378Z,12.00
2023-11-18T15:42:56.359Z,8.00
2023-11-18T15:43:56.381Z,8.00
2023-11-18T15:44:57.291Z,8.00
2023-11-18T15:45:56.319Z,8.00
2023-11-18T15:46:56.382Z,4.00
2023-11-18T15:47:56.422Z,4.00
2023-11-18T15:48:56.305Z,4.00
2023-11-18T15:49:56.362Z,4.00
2023-11-18T15:50:57.428Z,8.00
2023-11-18T15:51:56.241Z,4.00
2023-11-18T15:52:56.269Z,4.00
2023-11-18T15:53:56.227Z,4.00
2023-11-18T15:54:56.202Z,4.00
2023-11-18T15:55:56.327Z,4.00
2023-11-18T15:56:58.148Z,0.00
2023-11-18T15:57:56.278Z,0.00
2023-11-18T15:58:56.193Z,0.00
2023-11-18T15:59:56.139Z,0.00
2023-11-18T16:00:56.172Z,0.00
2023-11-18T16:01:56.132Z,0.00
2023-11-18T16:02:59.689Z,0.00
2023-11-18T16:03:57.182Z,0.00
2023-11-18T16:04:56.103Z,0.00
2023-11-18T16:05:56.075Z,0.00
2023-11-18T16:06:56.071Z,0.00
2023-11-18T16:07:56.081Z,0.00
2023-11-18T16:08:56.017Z,0.00
2023-11-18T16:09:56.012Z,0.00
2023-11-18T16:10:56.006Z,0.00
2023-11-18T16:11:56.008Z,0.00
2023-11-18T16:12:55.967Z,0.00
2023-11-18T16:13:56.026Z,0.00
2023-11-18T16:14:56.115Z,0.00
2023-11-18T16:15:55.955Z,0.00
2023-11-18T16:16:56.019Z,0.00
2023-11-18T16:17:56.006Z,0.00
2023-11-18T16:18:55.887Z,0.00
2023-11-18T16:19:55.917Z,0.00
2023-11-18T16:20:55.884Z,0.00
2023-11-18T16:21:55.858Z,0.00
2023-11-18T16:22:55.976Z,0.00
2023-11-18T16:23:55.841Z,0.00
2023-11-18T16:24:55.834Z,0.00
2023-11-18T16:25:55.842Z,0.00
2023-11-18T16:26:55.788Z,0.00
2023-11-18T16:27:55.803Z,0.00
2023-11-18T16:28:55.798Z,0.00
2023-11-18T16:29:55.771Z,0.00
2023-11-18T16:30:55.829Z,0.00
2023-11-18T16:31:55.800Z,0.00
2023-11-18T16:32:55.939Z,0.00
2023-11-18T16:33:55.775Z,0.00
2023-11-18T16:34:55.724Z,0.00
2023-11-18T16:35:55.682Z,0.00
2023-11-18T16:36:55.660Z,0.00
2023-11-18T16:37:56.117Z,0.00
2023-11-18T16:38:55.631Z,0.00
2023-11-18T16:39:55.657Z,0.00
2023-11-18T16:40:55.642Z,0.00
2023-11-18T16:41:55.678Z,0.00
2023-11-18T16:42:55.584Z,0.00
2023-11-18T16:43:55.658Z,0.00
2023-11-18T16:44:55.572Z,0.00
2023-11-18T16:45:55.567Z,0.00
2023-11-18T16:46:55.609Z,0.00
2023-11-18T16:47:56.129Z,0.00
2023-11-18T16:48:55.525Z,0.00
2023-11-18T16:50:03.040Z,0.00
2023-11-18T16:50:56.520Z,0.00
2023-11-18T16:51:58.278Z,0.00
2023-11-18T16:52:55.550Z,0.00
2023-11-18T16:53:55.458Z,0.00
2023-11-18T16:54:55.430Z,0.00
2023-11-18T16:55:55.457Z,0.00
2023-11-18T16:56:55.428Z,0.00
2023-11-18T16:57:55.684Z,0.00
2023-11-18T16:58:55.474Z,0.00
2023-11-18T16:59:55.378Z,0.00
2023-11-18T17:00:55.368Z,0.00
2023-11-18T17:01:55.366Z,0.00
2023-11-18T17:02:55.957Z,0.00
2023-11-18T17:03:55.410Z,0.00
2023-11-18T17:04:55.439Z,0.00
2023-11-18T17:05:55.298Z,0.00
2023-11-18T17:06:55.274Z,0.00
2023-11-18T17:07:55.745Z,0.00
2023-11-18T17:08:55.249Z,0.00
2023-11-18T17:09:55.251Z,0.00
2023-11-18T17:10:55.439Z,0.00
2023-11-18T17:11:55.229Z,0.00
2023-11-18T17:12:55.222Z,0.00
2023-11-18T17:13:55.242Z,0.00
2023-11-18T17:14:55.182Z,0.00
2023-11-18T17:15:55.173Z,0.00
2023-11-18T17:16:55.287Z,0.00
2023-11-18T17:17:55.301Z,0.00
2023-11-18T17:18:55.378Z,0.00
2023-11-18T17:19:55.138Z,0.00
2023-11-18T17:20:55.118Z,0.00
2023-11-18T17:21:55.118Z,0.00
2023-11-18T17:22:55.130Z,0.00
2023-11-18T17:23:55.068Z,0.00
2023-11-18T17:24:55.055Z,0.00
2023-11-18T17:25:55.066Z,0.00
2023-11-18T17:26:55.037Z,0.00
2023-11-18T17:27:55.148Z,0.00
2023-11-18T17:28:55.031Z,0.00
2023-11-18T17:29:54.977Z,0.00
2023-11-18T17:30:54.992Z,0.00
2023-11-18T17:31:55.074Z,0.00
2023-11-18T17:32:55.080Z,0.00
2023-11-18T17:33:54.947Z,0.00
2023-11-18T17:34:54.935Z,0.00
2023-11-18T17:35:54.924Z,0.00
2023-11-18T17:36:54.894Z,0.00
2023-11-18T17:37:54.892Z,0.00
2023-11-18T17:38:54.868Z,0.00
2023-11-18T17:39:54.854Z,0.00
2023-11-18T17:40:54.869Z,0.00
2023-11-18T17:41:54.842Z,0.00
2023-11-18T17:42:55.222Z,0.00
2023-11-18T17:43:54.811Z,0.00
2023-11-18T17:44:54.799Z,0.00
2023-11-18T17:45:54.784Z,0.00
2023-11-18T17:46:54.769Z,0.00
2023-11-18T17:47:54.771Z,0.00
2023-11-18T17:48:54.739Z,0.00